Time;durP1;ratioP1;P1;durP2;ratioP2;P2;SDS_P1;SDS_P2;PMS_P1;PMS_P2;Temp;Humidity;BMP_temperature;BMP_pressure;BME280_temperature;BME280_humidity;BME280_pressure;Samples;Min_cycle;Max_cycle;Signal;HPM_P1;HPM_P2
2022/05/09 00:02:15;;;;;;;10.50;2.50;;;7.50;99.90;;;;;;4826501;29;20133;-73
2022/05/09 00:04:41;;;;;;;7.63;2.08;;;7.50;99.90;;;;;;4826372;29;20081;-73
2022/05/09 00:07:07;;;;;;;8.43;2.38;;;7.50;99.90;;;;;;4826589;29;20054;-73
2022/05/09 00:09:33;;;;;;;8.00;2.40;;;7.40;99.90;;;;;;4826516;29;20048;-73
2022/05/09 00:11:59;;;;;;;7.85;2.40;;;7.40;99.90;;;;;;4826348;29;20129;-73
2022/05/09 00:14:26;;;;;;;5.57;2.15;;;7.40;99.90;;;;;;4826320;29;20080;-73
2022/05/09 00:16:52;;;;;;;9.45;2.90;;;7.30;99.90;;;;;;4840364;29;20086;-73
2022/05/09 00:19:20;;;;;;;9.25;2.40;;;7.40;99.90;;;;;;4826114;29;20057;-73
2022/05/09 00:21:48;;;;;;;10.00;2.67;;;7.40;99.90;;;;;;4825460;29;20068;-72
2022/05/09 00:24:17;;;;;;;7.65;2.60;;;7.80;99.90;;;;;;4826266;29;20134;-73
2022/05/09 00:26:44;;;;;;;10.38;2.45;;;7.70;99.90;;;;;;4825602;29;20178;-73
2022/05/09 00:29:11;;;;;;;10.18;2.35;;;7.40;99.90;;;;;;4826066;29;20058;-73
2022/05/09 00:31:39;;;;;;;8.63;2.75;;;7.40;99.90;;;;;;4825902;29;20108;-73
2022/05/09 00:34:06;;;;;;;7.47;2.22;;;7.30;99.90;;;;;;4826176;29;20054;-74
2022/05/09 00:36:32;;;;;;;8.23;2.13;;;7.30;99.90;;;;;;4826071;29;20050;-73
2022/05/09 00:38:59;;;;;;;11.55;2.38;;;7.20;99.90;;;;;;4826005;29;20061;-73
2022/05/09 00:41:34;;;;;;;9.32;2.90;;;7.20;99.90;;;;;;4825918;29;20054;-73
2022/05/09 00:44:21;;;;;;;12.95;2.65;;;7.20;99.90;;;;;;4825181;29;20058;-73
2022/05/09 00:46:50;;;;;;;10.07;2.42;;;7.20;99.90;;;;;;4810146;29;20062;-73
2022/05/09 00:49:22;;;;;;;8.10;2.70;;;7.60;99.90;;;;;;4824643;29;20096;-73
2022/05/09 00:51:51;;;;;;;7.38;1.88;;;7.20;99.90;;;;;;4825767;29;20500;-73
2022/05/09 00:54:17;;;;;;;6.13;2.30;;;7.10;99.90;;;;;;4825683;29;20073;-72
2022/05/09 00:56:55;;;;;;;8.02;2.20;;;7.10;99.90;;;;;;4808979;29;20046;-74
2022/05/09 00:59:22;;;;;;;10.88;2.65;;;7.30;99.90;;;;;;4826353;29;20054;-73
2022/05/09 01:01:48;;;;;;;7.30;2.17;;;7.30;99.90;;;;;;4825442;29;20053;-74
2022/05/09 01:04:21;;;;;;;6.88;2.17;;;7.10;99.90;;;;;;4825550;29;20046;-73
2022/05/09 01:06:48;;;;;;;10.18;2.83;;;6.90;99.90;;;;;;4825688;29;20172;-73
2022/05/09 01:09:14;;;;;;;9.55;2.47;;;7.10;99.90;;;;;;4825287;29;20057;-73
2022/05/09 01:11:43;;;;;;;7.32;2.17;;;7.10;99.90;;;;;;4824656;29;20056;-73
2022/05/09 01:14:22;;;;;;;10.40;3.15;;;6.90;99.90;;;;;;4824603;29;20129;-72
2022/05/09 01:16:48;;;;;;;10.00;2.72;;;7.10;99.90;;;;;;4825771;29;20103;-73
2022/05/09 01:19:26;;;;;;;7.60;2.40;;;7.20;99.90;;;;;;4825494;29;20050;-73
2022/05/09 01:21:51;;;;;;;10.48;2.80;;;7.10;99.90;;;;;;4825595;29;20435;-73
2022/05/09 01:24:20;;;;;;;7.82;2.58;;;7.00;99.90;;;;;;4825454;29;20133;-73
2022/05/09 01:26:47;;;;;;;10.55;2.63;;;7.80;99.90;;;;;;4824711;29;20458;-73
2022/05/09 01:29:39;;;;;;;6.97;2.58;;;7.60;99.90;;;;;;4839419;29;20050;-73
2022/05/09 01:32:09;;;;;;;7.10;2.88;;;7.00;99.90;;;;;;4825113;29;20046;-73
2022/05/09 01:34:36;;;;;;;6.28;2.50;;;6.90;99.90;;;;;;4825923;29;20114;-73
2022/05/09 01:37:05;;;;;;;10.63;2.30;;;6.90;99.90;;;;;;4824107;29;20051;-73
2022/05/09 01:39:32;;;;;;;6.13;2.70;;;6.80;99.90;;;;;;4825333;29;20133;-73
2022/05/09 01:42:04;;;;;;;9.73;2.97;;;6.70;99.90;;;;;;4839079;29;20061;-74
2022/05/09 01:44:29;;;;;;;10.15;2.80;;;6.90;99.90;;;;;;4824915;29;20086;-74
2022/05/09 01:49:40;;;;;;;8.00;2.78;;;6.90;99.90;;;;;;4824999;29;20136;-73
2022/05/09 01:52:08;;;;;;;11.43;2.65;;;6.90;99.90;;;;;;4823969;29;20052;-73
2022/05/09 01:54:35;;;;;;;7.47;2.53;;;7.40;99.90;;;;;;4824857;29;20081;-73
2022/05/09 01:57:01;;;;;;;6.50;2.78;;;6.80;99.90;;;;;;4823027;29;20114;-73
2022/05/09 01:59:27;;;;;;;8.30;2.60;;;6.80;99.90;;;;;;4823862;29;20050;-73
2022/05/09 02:02:01;;;;;;;7.82;2.72;;;6.80;99.90;;;;;;4823674;29;20051;-73
2022/05/09 02:04:27;;;;;;;8.52;2.80;;;6.80;99.90;;;;;;4824904;29;20441;-73
2022/05/09 02:06:54;;;;;;;7.40;2.75;;;6.70;99.90;;;;;;4808457;29;20050;-73
2022/05/09 02:09:20;;;;;;;8.00;3.03;;;6.70;99.90;;;;;;4824565;29;20125;-73
2022/05/09 02:11:46;;;;;;;9.38;2.60;;;7.70;99.90;;;;;;4824471;29;20079;-74
2022/05/09 02:14:12;;;;;;;6.90;2.88;;;6.70;99.90;;;;;;4824610;29;20054;-73
2022/05/09 02:16:38;;;;;;;9.77;2.65;;;6.70;99.90;;;;;;4808652;29;20050;-73
2022/05/09 02:19:05;;;;;;;10.60;2.75;;;6.50;99.90;;;;;;4824437;29;20122;-73
2022/05/09 02:21:31;;;;;;;7.47;2.75;;;6.60;99.90;;;;;;4824696;29;20408;-73
2022/05/09 02:23:57;;;;;;;7.32;2.50;;;6.80;99.90;;;;;;4823558;29;20058;-73
2022/05/09 02:26:24;;;;;;;7.82;2.50;;;7.20;99.90;;;;;;4822896;29;20466;-74
2022/05/09 02:28:50;;;;;;;8.05;2.45;;;6.60;99.90;;;;;;4823427;29;20399;-73
2022/05/09 02:31:19;;;;;;;8.32;2.88;;;6.60;99.90;;;;;;4823286;29;20070;-74
2022/05/09 02:33:44;;;;;;;11.15;2.75;;;6.60;99.90;;;;;;4823636;29;20072;-73
2022/05/09 02:36:10;;;;;;;8.93;2.78;;;6.60;99.90;;;;;;4823218;29;20492;-73
2022/05/09 02:38:36;;;;;;;11.02;3.33;;;6.60;99.90;;;;;;4823019;29;20058;-74
2022/05/09 02:41:01;;;;;;;7.90;3.13;;;6.60;99.90;;;;;;4807818;29;20090;-73
2022/05/09 02:43:28;;;;;;;7.22;2.88;;;6.60;99.90;;;;;;4823162;29;20046;-73
2022/05/09 02:45:55;;;;;;;11.02;3.63;;;6.70;99.90;;;;;;4838308;29;20103;-73
2022/05/09 02:48:21;;;;;;;13.85;3.83;;;7.30;99.90;;;;;;4824153;29;20130;-73
2022/05/09 02:50:47;;;;;;;7.47;2.70;;;6.60;99.90;;;;;;4823194;29;20137;-73
2022/05/09 02:53:14;;;;;;;8.65;3.00;;;6.60;99.90;;;;;;4824015;29;20050;-73
2022/05/09 02:55:40;;;;;;;12.50;3.15;;;6.70;99.90;;;;;;4822938;29;20461;-73
2022/05/09 02:58:06;;;;;;;7.97;3.22;;;6.60;99.90;;;;;;4822510;29;20436;-74
2022/05/09 03:00:32;;;;;;;7.63;2.95;;;6.50;99.90;;;;;;4807883;29;20050;-73
2022/05/09 03:05:44;;;;;;;8.73;2.95;;;6.50;99.90;;;;;;4823977;29;20054;-73
2022/05/09 03:08:12;;;;;;;7.45;2.80;;;6.50;99.90;;;;;;4824926;29;20057;-74
2022/05/09 03:10:39;;;;;;;9.25;3.30;;;6.80;99.90;;;;;;4827476;29;20102;-74
2022/05/09 03:13:06;;;;;;;6.88;3.60;;;6.90;99.90;;;;;;4826175;29;20054;-73
2022/05/09 03:15:40;;;;;;;8.20;3.20;;;6.30;99.90;;;;;;4827276;29;20526;-73
2022/05/09 03:18:06;;;;;;;6.20;3.53;;;6.30;99.90;;;;;;4827194;29;20106;-73
2022/05/09 03:20:32;;;;;;;7.90;4.10;;;6.30;99.90;;;;;;4827057;29;20119;-73
2022/05/09 03:22:58;;;;;;;10.73;3.58;;;6.20;99.90;;;;;;4826417;29;20054;-74
2022/05/09 03:25:24;;;;;;;11.25;4.03;;;6.40;99.90;;;;;;4811332;29;20179;-74
2022/05/09 03:27:49;;;;;;;8.95;3.50;;;6.20;99.90;;;;;;4826630;29;20502;-74
2022/05/09 03:30:19;;;;;;;9.68;3.53;;;6.10;99.90;;;;;;4825846;29;20058;-73
2022/05/09 03:32:46;;;;;;;9.82;4.25;;;6.10;99.90;;;;;;4826379;29;20440;-73
2022/05/09 03:35:12;;;;;;;10.02;4.57;;;5.90;99.90;;;;;;4825827;29;20053;-74
2022/05/09 03:37:38;;;;;;;9.45;3.75;;;6.00;99.90;;;;;;4841210;29;20067;-73
2022/05/09 03:40:05;;;;;;;8.43;3.75;;;6.00;99.90;;;;;;4826992;29;20061;-73
2022/05/09 03:42:32;;;;;;;6.95;4.10;;;6.00;99.90;;;;;;4826852;29;20050;-73
2022/05/09 03:44:57;;;;;;;7.90;3.75;;;6.00;99.90;;;;;;4826617;29;20526;-73
2022/05/09 03:47:23;;;;;;;9.05;3.67;;;6.10;99.90;;;;;;4825880;29;20085;-74
2022/05/09 03:49:50;;;;;;;7.03;3.40;;;6.60;99.90;;;;;;4825348;29;20446;-73
2022/05/09 03:52:16;;;;;;;9.32;3.55;;;6.10;99.90;;;;;;4825316;29;20073;-74
2022/05/09 03:54:42;;;;;;;8.10;3.45;;;5.70;99.90;;;;;;4826501;29;20050;-74
2022/05/09 03:57:08;;;;;;;8.85;3.67;;;5.90;99.90;;;;;;4810055;29;20423;-74
2022/05/09 03:59:34;;;;;;;8.52;3.88;;;6.00;99.90;;;;;;4840820;29;20047;-73
2022/05/09 04:01:59;;;;;;;10.25;4.70;;;6.00;99.90;;;;;;4825751;29;20468;-74
2022/05/09 04:04:25;;;;;;;10.70;4.43;;;6.00;99.90;;;;;;4840545;29;20058;-74
2022/05/09 04:06:51;;;;;;;12.10;4.25;;;6.10;99.90;;;;;;4810283;29;20620;-73
2022/05/09 04:09:18;;;;;;;10.48;4.05;;;6.10;99.90;;;;;;4826567;29;20054;-73
2022/05/09 04:11:45;;;;;;;12.88;5.45;;;6.10;99.90;;;;;;4826459;29;20059;-73
2022/05/09 04:14:11;;;;;;;10.85;4.70;;;6.10;99.90;;;;;;4826355;29;20050;-73
2022/05/09 04:16:49;;;;;;;9.88;4.45;;;6.20;99.90;;;;;;4826292;29;20050;-74
2022/05/09 04:19:15;;;;;;;8.88;4.70;;;6.20;99.90;;;;;;4824713;29;20046;-74
2022/05/09 04:21:42;;;;;;;7.80;4.70;;;6.60;99.90;;;;;;4825378;29;20065;-73
2022/05/09 04:24:07;;;;;;;9.95;4.78;;;6.30;99.90;;;;;;4824912;29;20103;-74
2022/05/09 04:26:33;;;;;;;9.07;4.35;;;6.30;99.90;;;;;;4824653;29;20050;-74
2022/05/09 04:29:00;;;;;;;10.07;4.35;;;6.40;99.90;;;;;;4826055;29;20111;-74
2022/05/09 04:31:28;;;;;;;10.73;3.97;;;7.10;99.90;;;;;;4826284;29;20165;-73
2022/05/09 04:33:55;;;;;;;10.57;4.63;;;6.40;99.90;;;;;;4825903;29;20053;-73
2022/05/09 04:36:22;;;;;;;10.88;5.10;;;6.40;99.90;;;;;;4826000;29;20054;-73
2022/05/09 04:38:50;;;;;;;9.02;4.22;;;7.40;99.90;;;;;;4826148;29;20129;-73
2022/05/09 04:41:18;;;;;;;10.80;4.07;;;6.50;99.90;;;;;;4825862;29;20411;-73
2022/05/09 04:43:44;;;;;;;10.25;4.55;;;6.60;99.90;;;;;;4824715;29;20058;-73
2022/05/09 04:46:11;;;;;;;12.45;4.43;;;6.50;99.90;;;;;;4825906;29;20444;-73
2022/05/09 04:48:40;;;;;;;10.05;4.32;;;6.40;99.90;;;;;;4825873;29;20050;-73
2022/05/09 04:51:06;;;;;;;8.85;4.00;;;6.50;99.90;;;;;;4825917;29;20050;-73
2022/05/09 04:53:32;;;;;;;10.00;4.75;;;6.40;99.90;;;;;;4824918;29;20380;-73
2022/05/09 04:55:58;;;;;;;7.90;4.20;;;6.70;99.90;;;;;;4825576;29;20495;-73
2022/05/09 04:58:24;;;;;;;8.90;5.00;;;6.90;99.90;;;;;;4824969;29;20046;-74
2022/05/09 05:00:50;;;;;;;9.80;4.80;;;6.80;99.90;;;;;;4824378;29;20651;-73
2022/05/09 05:03:16;;;;;;;12.48;4.38;;;6.80;99.90;;;;;;4825606;29;20198;-73
2022/05/09 05:05:42;;;;;;;8.93;4.15;;;6.70;99.90;;;;;;4825954;29;20133;-73
2022/05/09 05:08:09;;;;;;;11.45;5.15;;;6.80;99.90;;;;;;4824411;29;20472;-73
2022/05/09 05:10:35;;;;;;;9.50;4.07;;;6.90;99.90;;;;;;4839634;29;20058;-73
2022/05/09 05:13:03;;;;;;;12.40;4.75;;;7.00;99.90;;;;;;4825336;29;20050;-73
2022/05/09 05:15:30;;;;;;;14.27;4.60;;;7.20;99.90;;;;;;4825279;29;20057;-73
2022/05/09 05:17:56;;;;;;;10.57;4.82;;;7.10;99.90;;;;;;4824489;29;20051;-73
2022/05/09 05:20:22;;;;;;;10.88;4.00;;;7.30;99.90;;;;;;4825475;29;20049;-73
2022/05/09 05:22:49;;;;;;;11.02;4.65;;;7.40;99.90;;;;;;4824216;29;20129;-74
2022/05/09 05:25:27;;;;;;;11.20;4.78;;;7.50;99.90;;;;;;4825167;29;20054;-73
2022/05/09 05:27:53;;;;;;;10.82;4.72;;;7.60;99.90;;;;;;4823511;29;20054;-74
2022/05/09 05:30:20;;;;;;;13.02;5.75;;;7.70;99.90;;;;;;4823398;29;20469;-73
2022/05/09 05:32:47;;;;;;;12.85;4.53;;;7.80;99.90;;;;;;4824353;29;20062;-73
2022/05/09 05:35:17;;;;;;;13.52;5.53;;;7.70;99.90;;;;;;4825166;29;20090;-73
2022/05/09 05:37:43;;;;;;;15.00;4.97;;;7.90;99.90;;;;;;4825025;29;20046;-73
2022/05/09 05:40:10;;;;;;;12.93;5.20;;;8.00;99.90;;;;;;4824012;29;20103;-73
2022/05/09 05:42:39;;;;;;;9.75;5.03;;;8.10;99.90;;;;;;4823734;29;20054;-73
2022/05/09 05:45:06;;;;;;;11.70;4.70;;;8.10;99.90;;;;;;4824085;29;20057;-73
2022/05/09 05:47:31;;;;;;;12.38;4.97;;;8.20;99.90;;;;;;4824755;29;20083;-73
2022/05/09 05:49:59;;;;;;;10.13;4.47;;;8.20;99.90;;;;;;4825181;29;20054;-73
2022/05/09 05:52:25;;;;;;;8.70;4.85;;;8.30;99.90;;;;;;4823831;29;20051;-74
2022/05/09 05:54:51;;;;;;;15.30;5.35;;;8.30;99.90;;;;;;4823418;29;20057;-73
2022/05/09 05:57:20;;;;;;;11.43;4.07;;;8.40;99.90;;;;;;4823831;29;20081;-74
2022/05/09 05:59:53;;;;;;;11.05;5.03;;;8.50;99.90;;;;;;4824095;29;20522;-74
2022/05/09 06:02:19;;;;;;;;;;;8.60;99.90;;;;;;4824545;29;20061;-73
2022/05/09 06:04:45;;;;;;;13.32;5.28;;;8.60;99.90;;;;;;4823718;29;19924;-73
2022/05/09 06:07:12;;;;;;;10.88;5.05;;;8.60;99.90;;;;;;4824721;29;20051;-73
2022/05/09 06:09:39;;;;;;;12.23;4.55;;;8.70;99.90;;;;;;4824413;29;20050;-73
2022/05/09 06:12:05;;;;;;;12.00;5.05;;;8.70;99.90;;;;;;4824775;29;20111;-73
2022/05/09 06:14:31;;;;;;;13.90;4.80;;;8.80;99.90;;;;;;4824135;29;20102;-73
2022/05/09 06:16:57;;;;;;;9.85;4.45;;;8.90;99.90;;;;;;4823674;29;20054;-73
2022/05/09 06:19:23;;;;;;;11.20;4.63;;;8.90;99.90;;;;;;4808449;29;20142;-73
2022/05/09 06:21:50;;;;;;;12.52;4.75;;;9.00;99.90;;;;;;4824714;29;20125;-74
2022/05/09 06:24:16;;;;;;;12.98;4.20;;;9.10;99.90;;;;;;4823763;29;20050;-74
2022/05/09 06:26:44;;;;;;;12.60;4.57;;;9.10;99.90;;;;;;4824036;29;20050;-74
2022/05/09 06:29:10;;;;;;;10.88;4.40;;;9.20;99.90;;;;;;4808407;29;20142;-73
2022/05/09 06:31:37;;;;;;;12.10;4.90;;;9.10;99.90;;;;;;4824572;29;20069;-73
2022/05/09 06:34:04;;;;;;;11.20;4.50;;;9.20;99.90;;;;;;4824430;29;20089;-74
2022/05/09 06:36:34;;;;;;;10.15;3.97;;;9.30;99.90;;;;;;4823326;29;20059;-73
2022/05/09 06:39:00;;;;;;;10.70;4.43;;;9.40;99.90;;;;;;4824458;29;20124;-74
2022/05/09 06:41:26;;;;;;;11.38;3.90;;;9.40;99.90;;;;;;4823457;29;20050;-74
2022/05/09 06:43:52;;;;;;;7.13;3.80;;;9.50;99.90;;;;;;4827681;29;20073;-73
2022/05/09 06:46:18;;;;;;;11.10;4.05;;;9.50;99.90;;;;;;4827114;29;20050;-73
2022/05/09 06:48:43;;;;;;;13.57;3.95;;;9.70;99.90;;;;;;4827965;29;20129;-73
2022/05/09 06:51:09;;;;;;;10.90;4.10;;;9.70;99.90;;;;;;4827669;29;20086;-73
2022/05/09 06:53:35;;;;;;;6.60;3.30;;;9.70;99.90;;;;;;4842006;29;20571;-74
2022/05/09 06:56:00;;;;;;;11.18;3.83;;;9.80;99.90;;;;;;4827850;29;20046;-73
2022/05/09 06:58:26;;;;;;;9.90;3.25;;;9.90;99.90;;;;;;4827205;29;20541;-74
2022/05/09 07:00:53;;;;;;;8.30;3.58;;;9.90;99.90;;;;;;4811475;29;20053;-73
2022/05/09 07:03:19;;;;;;;10.30;3.88;;;10.00;99.90;;;;;;4822546;29;20061;-73
2022/05/09 07:05:47;;;;;;;9.15;3.10;;;10.10;99.90;;;;;;4809492;29;20100;-73
2022/05/09 07:08:14;;;;;;;7.28;2.85;;;10.20;99.90;;;;;;4808544;29;20062;-74
2022/05/09 07:10:41;;;;;;;7.57;3.45;;;10.20;99.90;;;;;;4809498;29;20130;-74
2022/05/09 07:13:06;;;;;;;6.78;2.67;;;10.30;99.90;;;;;;4809538;29;20069;-75
2022/05/09 07:15:34;;;;;;;9.25;3.03;;;10.40;99.90;;;;;;4808275;29;20054;-74
2022/05/09 07:17:59;;;;;;;6.38;2.42;;;10.50;99.90;;;;;;4809373;29;20055;-74
2022/05/09 07:20:28;;;;;;;6.47;2.60;;;10.60;99.90;;;;;;4808996;29;20571;-73
2022/05/09 07:22:56;;;;;;;3.95;2.30;;;10.70;99.90;;;;;;4809684;29;20047;-74
2022/05/09 07:25:24;;;;;;;6.28;2.40;;;10.80;99.90;;;;;;4823224;29;20412;-75
2022/05/09 07:27:50;;;;;;;14.43;3.28;;;10.80;99.90;;;;;;4808785;29;20133;-74
2022/05/09 07:30:19;;;;;;;7.35;2.45;;;10.90;99.90;;;;;;4809002;29;20500;-75
2022/05/09 07:32:45;;;;;;;5.78;2.25;;;11.00;99.90;;;;;;4809111;29;20097;-76
2022/05/09 07:35:15;;;;;;;7.75;2.55;;;11.10;99.90;;;;;;4808512;29;20551;-75
2022/05/09 07:37:41;;;;;;;9.35;2.83;;;11.20;99.90;;;;;;4809302;29;20103;-75
2022/05/09 07:40:10;;;;;;;6.93;2.85;;;11.30;99.90;;;;;;4809104;29;20065;-75
2022/05/09 07:42:37;;;;;;;7.43;2.85;;;11.30;99.90;;;;;;4808979;29;20120;-78
2022/05/09 07:45:04;;;;;;;6.25;2.60;;;11.40;99.90;;;;;;4809279;29;20129;-75
2022/05/09 07:47:30;;;;;;;7.35;2.65;;;11.50;99.90;;;;;;4808769;29;20119;-75
2022/05/09 07:49:56;;;;;;;8.57;3.10;;;11.60;99.90;;;;;;4809223;29;20058;-75
2022/05/09 07:52:22;;;;;;;8.45;2.80;;;11.60;99.90;;;;;;4808892;29;20047;-75
2022/05/09 07:54:48;;;;;;;6.45;2.70;;;11.70;99.90;;;;;;4808556;29;20043;-74
2022/05/09 07:57:14;;;;;;;8.45;3.50;;;11.80;99.90;;;;;;4808284;29;20051;-73
2022/05/09 07:59:40;;;;;;;9.57;3.30;;;11.90;99.90;;;;;;4809243;29;20126;-76
2022/05/09 08:02:06;;;;;;;9.93;2.80;;;12.00;99.90;;;;;;4807779;29;20572;-74
2022/05/09 08:04:32;;;;;;;6.45;2.85;;;12.00;99.90;;;;;;4807551;29;20484;-74
2022/05/09 08:06:58;;;;;;;8.75;3.28;;;12.00;99.90;;;;;;4808602;29;20051;-75
2022/05/09 08:09:24;;;;;;;8.85;2.85;;;12.10;99.90;;;;;;4808529;29;20053;-74
2022/05/09 08:11:50;;;;;;;8.15;3.08;;;12.20;99.90;;;;;;4808441;29;20176;-75
2022/05/09 08:14:16;;;;;;;6.80;2.63;;;12.30;99.90;;;;;;4808466;29;20068;-75
2022/05/09 08:16:43;;;;;;;6.97;3.28;;;12.30;99.90;;;;;;4807056;29;20058;-75
2022/05/09 08:19:11;;;;;;;8.65;2.90;;;12.40;99.90;;;;;;4808408;29;20195;-75
2022/05/09 08:21:37;;;;;;;7.28;3.20;;;12.50;99.90;;;;;;4807450;29;20066;-81
2022/05/09 08:24:05;;;;;;;9.23;3.38;;;12.60;99.90;;;;;;4809532;29;20114;-82
2022/05/09 08:26:31;;;;;;;10.07;2.95;;;12.70;99.90;;;;;;4830136;29;20062;-79
2022/05/09 08:28:56;;;;;;;8.18;2.95;;;12.70;99.90;;;;;;4815066;29;20046;-82
2022/05/09 08:31:23;;;;;;;9.52;2.60;;;12.80;99.90;;;;;;4831397;29;20114;-81
2022/05/09 08:33:56;;;;;;;5.18;2.22;;;12.90;99.90;;;;;;4816366;29;20123;-81
2022/05/09 08:39:08;;;;;;;7.95;2.75;;;13.00;99.90;;;;;;4815741;29;20088;-80
2022/05/09 08:41:57;;;;;;;7.90;2.55;;;13.10;99.90;;;;;;4816485;29;20564;-81
2022/05/09 08:44:51;;;;;;;7.28;2.35;;;13.20;99.90;;;;;;4817795;29;20072;-81
2022/05/09 08:48:03;;;;;;;5.63;2.20;;;13.30;99.90;;;;;;4817748;29;20050;-81
2022/05/09 08:50:41;;;;;;;7.93;2.90;;;13.40;99.90;;;;;;4816137;29;20154;-80
2022/05/09 08:53:11;;;;;;;8.07;2.78;;;13.50;99.90;;;;;;4817580;29;20057;-81
2022/05/09 08:55:44;;;;;;;6.43;2.72;;;13.50;99.90;;;;;;4831067;29;20055;-80
2022/05/09 08:58:28;;;;;;;7.18;2.60;;;13.60;99.90;;;;;;4815605;29;20491;-80
2022/05/09 09:00:55;;;;;;;8.20;2.58;;;13.70;99.90;;;;;;4818022;29;20082;-81
2022/05/09 09:03:31;;;;;;;7.70;2.75;;;13.70;99.90;;;;;;4816895;29;20058;-80
2022/05/09 09:06:07;;;;;;;8.20;2.95;;;13.80;99.90;;;;;;4796445;29;20411;-76
2022/05/09 09:08:51;;;;;;;9.57;2.90;;;13.90;99.90;;;;;;4809260;29;20531;-75
2022/05/09 09:11:43;;;;;;;7.50;2.42;;;14.00;99.90;;;;;;4812702;29;20090;-74
2022/05/09 09:14:36;;;;;;;6.72;2.78;;;14.10;99.90;;;;;;4809595;29;20085;-75
2022/05/09 09:17:13;;;;;;;8.40;2.55;;;14.20;99.90;;;;;;4814395;29;20137;-75
2022/05/09 09:20:08;;;;;;;9.23;3.20;;;14.30;99.90;;;;;;4808630;29;20054;-74
2022/05/09 09:22:48;;;;;;;7.13;2.50;;;14.40;99.90;;;;;;4810919;29;20449;-74
2022/05/09 09:25:35;;;;;;;5.88;2.50;;;14.50;99.90;;;;;;4811470;29;20538;-74
2022/05/09 09:28:09;;;;;;;5.78;2.10;;;14.60;99.90;;;;;;4807866;29;20054;-74
2022/05/09 09:30:36;;;;;;;6.78;2.25;;;14.70;99.90;;;;;;4812127;29;20144;-74
2022/05/09 09:33:09;;;;;;;8.95;2.40;;;14.80;99.90;;;;;;4805372;29;20066;-74
2022/05/09 09:35:53;;;;;;;;;;;14.80;99.90;;;;;;4809359;29;20169;-74
2022/05/09 09:39:01;;;;;;;7.13;2.40;;;14.90;99.90;;;;;;4809372;29;19935;-75
2022/05/09 09:41:33;;;;;;;4.45;2.50;;;14.90;99.90;;;;;;4808477;29;20054;-75
2022/05/09 09:44:17;;;;;;;3.80;1.88;;;15.00;99.90;;;;;;4809287;29;20050;-74
2022/05/09 09:47:11;;;;;;;5.05;1.88;;;15.10;99.90;;;;;;4803668;29;20475;-75
2022/05/09 09:49:43;;;;;;;;;;;15.20;99.90;;;;;;4822024;29;20063;-76
2022/05/09 09:52:38;;;;;;;5.25;2.05;;;15.30;99.90;;;;;;4808847;29;20345;-75
2022/05/09 09:55:19;;;;;;;7.50;2.10;;;15.30;99.90;;;;;;4810129;29;20062;-75
2022/05/09 09:57:46;;;;;;;6.43;1.80;;;15.40;99.90;;;;;;4814605;29;20451;-75
2022/05/09 10:00:20;;;;;;;5.78;2.00;;;15.40;99.90;;;;;;4810840;29;20392;-75
2022/05/09 10:02:51;;;;;;;3.35;1.70;;;15.50;99.90;;;;;;4807682;29;20544;-75
2022/05/09 10:05:21;;;;;;;5.57;1.90;;;15.60;99.90;;;;;;4810703;29;20388;-75
2022/05/09 10:07:47;;;;;;;3.30;1.50;;;15.70;99.40;;;;;;4810785;29;20408;-74
2022/05/09 10:10:31;;;;;;;4.93;1.88;;;15.80;99.30;;;;;;4810251;29;20057;-75
2022/05/09 10:12:58;;;;;;;5.45;1.63;;;15.80;98.30;;;;;;4810091;29;20054;-75
2022/05/09 10:15:30;;;;;;;6.30;1.70;;;15.90;97.60;;;;;;4808233;29;20064;-76
2022/05/09 10:17:57;;;;;;;4.32;1.40;;;16.00;97.20;;;;;;4808082;29;20061;-75
2022/05/09 10:20:37;;;;;;;6.75;1.77;;;16.00;97.00;;;;;;4806390;29;20134;-77
2022/05/09 10:26:02;;;;;;;4.07;1.40;;;16.20;96.00;;;;;;4812110;29;20058;-76
2022/05/09 10:28:31;;;;;;;5.65;1.20;;;16.30;95.00;;;;;;4810730;29;20115;-76
2022/05/09 10:31:32;;;;;;;4.28;1.45;;;16.40;94.90;;;;;;4805730;29;20185;-76
2022/05/09 10:34:05;;;;;;;9.90;1.35;;;16.10;94.40;;;;;;4807294;29;20187;-74
2022/05/09 10:36:43;;;;;;;4.40;1.67;;;16.60;94.50;;;;;;4812097;29;20130;-74
2022/05/09 10:39:11;;;;;;;3.30;0.95;;;16.80;94.10;;;;;;4810142;29;20050;-74
2022/05/09 10:41:43;;;;;;;3.83;1.15;;;16.90;93.50;;;;;;4810041;29;20047;-74
2022/05/09 10:44:28;;;;;;;7.30;1.60;;;16.90;93.20;;;;;;4814179;29;20111;-74
2022/05/09 10:47:20;;;;;;;5.63;1.23;;;17.00;92.50;;;;;;4809730;29;20057;-74
2022/05/09 10:50:01;;;;;;;6.07;1.20;;;17.10;92.80;;;;;;4810221;29;20526;-68
2022/05/09 10:52:55;;;;;;;5.70;1.02;;;17.20;92.30;;;;;;4824732;29;20054;-69
2022/05/09 10:55:33;;;;;;;2.05;0.93;;;17.20;91.80;;;;;;4824070;29;20141;-68
2022/05/09 10:58:07;;;;;;;4.93;1.33;;;17.30;91.00;;;;;;4823194;29;20563;-79
2022/05/09 11:00:37;;;;;;;4.32;1.10;;;17.40;90.50;;;;;;4838574;29;20086;-78
2022/05/09 11:03:39;;;;;;;3.10;1.20;;;17.50;89.40;;;;;;4824341;29;20077;-81
2022/05/09 11:06:27;;;;;;;4.30;1.02;;;17.60;90.30;;;;;;4823844;29;20054;-81
2022/05/09 11:09:18;;;;;;;4.10;1.10;;;17.60;89.70;;;;;;4824247;29;20046;-82
2022/05/09 11:12:22;;;;;;;4.50;1.00;;;17.70;89.20;;;;;;4820887;29;20503;-82
2022/05/09 11:15:06;;;;;;;3.63;0.98;;;17.80;87.40;;;;;;4807571;29;20138;-82
2022/05/09 11:17:59;;;;;;;4.25;1.20;;;17.90;87.60;;;;;;4823265;29;20054;-82
2022/05/09 11:21:03;;;;;;;4.25;1.00;;;18.00;87.20;;;;;;4822480;29;20058;-81
2022/05/09 11:23:56;;;;;;;4.47;1.05;;;18.00;84.50;;;;;;4805046;29;20055;-83
2022/05/09 11:26:25;;;;;;;;;;;18.20;85.80;;;;;;4807219;29;20050;-83
2022/05/09 11:29:00;;;;;;;2.45;0.90;;;18.30;88.20;;;;;;4807253;29;20028;-82
2022/05/09 11:31:46;;;;;;;3.13;1.17;;;18.20;83.20;;;;;;4825467;29;20070;-82
2022/05/09 11:34:30;;;;;;;3.63;1.15;;;18.20;82.20;;;;;;4826626;29;20094;-83
2022/05/09 11:37:11;;;;;;;6.60;1.17;;;18.30;81.80;;;;;;4825217;29;20050;-83
2022/05/09 11:39:52;;;;;;;3.80;1.15;;;18.40;82.40;;;;;;4825551;29;20062;-82
2022/05/09 11:45:41;;;;;;;2.33;1.15;;;18.40;80.30;;;;;;4826147;29;20119;-83
2022/05/09 11:48:22;;;;;;;3.83;0.95;;;18.60;81.60;;;;;;4810184;29;20091;-84
2022/05/09 11:51:02;;;;;;;2.45;0.98;;;18.60;79.20;;;;;;4825290;29;20058;-83
2022/05/09 11:53:32;;;;;;;5.65;1.17;;;18.70;79.60;;;;;;4826154;29;20452;-82
2022/05/09 11:56:05;;;;;;;3.45;0.85;;;18.70;78.60;;;;;;4825114;29;20548;-84
2022/05/09 11:58:37;;;;;;;5.82;1.13;;;18.70;78.30;;;;;;4805802;29;20401;-84
2022/05/09 12:01:03;;;;;;;4.85;1.13;;;18.80;78.30;;;;;;4825296;29;20408;-83
2022/05/09 12:03:41;;;;;;;4.28;0.73;;;18.90;78.30;;;;;;4810060;29;20504;-82
2022/05/09 12:06:12;;;;;;;8.10;0.98;;;19.00;78.80;;;;;;4825487;29;20054;-83
2022/05/09 12:08:49;;;;;;;3.60;1.00;;;19.10;77.50;;;;;;4825115;29;20046;-83
2022/05/09 12:11:27;;;;;;;6.15;1.30;;;19.20;76.10;;;;;;4825207;29;20051;-83
2022/05/09 12:13:55;;;;;;;3.45;0.98;;;19.30;75.70;;;;;;4825353;29;20050;-84
2022/05/09 12:16:36;;;;;;;3.88;0.90;;;19.40;75.10;;;;;;4827525;29;20061;-85
2022/05/09 12:19:30;;;;;;;4.82;1.20;;;19.60;74.20;;;;;;4826617;29;20055;-81
2022/05/09 12:22:23;;;;;;;2.97;1.00;;;19.60;73.80;;;;;;4826367;29;20050;-83
2022/05/09 12:24:49;;;;;;;3.83;1.60;;;19.70;75.00;;;;;;4825744;29;20055;-81
2022/05/09 12:27:40;;;;;;;2.70;0.95;;;19.70;74.40;;;;;;4824422;29;20038;-83
2022/05/09 12:30:35;;;;;;;4.68;1.20;;;19.80;74.60;;;;;;4825569;29;20418;-84
2022/05/09 12:33:08;;;;;;;3.65;1.00;;;19.80;74.70;;;;;;4817279;29;20061;-83
2022/05/09 12:35:34;;;;;;;3.65;1.20;;;19.80;74.50;;;;;;4824459;29;20491;-82
2022/05/09 12:37:59;;;;;;;4.93;1.20;;;19.90;74.40;;;;;;4809701;29;20051;-83
2022/05/09 12:40:25;;;;;;;2.30;1.20;;;19.90;73.30;;;;;;4808478;29;20047;-82
2022/05/09 12:42:59;;;;;;;3.22;0.90;;;19.90;73.00;;;;;;4823087;29;20134;-83
2022/05/09 12:45:27;;;;;;;5.32;1.10;;;20.00;72.40;;;;;;4824577;29;20053;-83
2022/05/09 12:47:53;;;;;;;4.18;0.90;;;20.00;71.70;;;;;;4824015;29;20060;-83
2022/05/09 12:50:43;;;;;;;2.78;0.93;;;20.10;71.10;;;;;;4824970;29;20087;-86
2022/05/09 12:53:14;;;;;;;3.65;0.90;;;20.10;69.80;;;;;;4825478;29;20133;-82
2022/05/09 12:55:52;;;;;;;3.92;1.00;;;20.20;70.80;;;;;;4824791;29;20054;-83
2022/05/09 12:58:34;;;;;;;3.33;0.98;;;20.20;70.20;;;;;;4825117;29;20046;-86
2022/05/09 13:01:27;;;;;;;5.35;1.10;;;20.30;70.20;;;;;;4826249;29;20114;-83
2022/05/09 13:04:16;;;;;;;3.58;0.90;;;20.40;71.00;;;;;;4823375;29;20522;-82
2022/05/09 13:06:49;;;;;;;4.70;0.90;;;20.40;69.60;;;;;;4809416;29;20058;-84
2022/05/09 13:09:21;;;;;;;3.30;0.95;;;20.40;68.50;;;;;;4825882;29;20043;-82
2022/05/09 13:12:01;;;;;;;4.25;1.00;;;20.50;69.10;;;;;;4823102;29;20061;-82
2022/05/09 13:15:05;;;;;;;3.75;0.88;;;20.60;68.50;;;;;;4824949;29;20058;-81
2022/05/09 13:17:30;;;;;;;3.17;0.90;;;20.70;69.20;;;;;;4817248;29;20381;-82
2022/05/09 13:19:57;;;;;;;6.85;1.10;;;20.80;67.80;;;;;;4825129;29;20053;-82
2022/05/09 13:22:36;;;;;;;2.83;1.20;;;20.80;67.30;;;;;;4824199;29;20066;-83
2022/05/09 13:25:07;;;;;;;3.80;1.10;;;20.80;67.10;;;;;;4838833;29;20518;-83
2022/05/09 13:27:34;;;;;;;4.13;1.20;;;20.80;66.10;;;;;;4824093;29;20046;-83